ブリスベン の空港の天気 - METARとTAF

ブリスベン空港 ( YBBN / BNE ) - オーストラリア クイーンズランド州ブリスベン
飛行場実況気象(Metar)
観測時間10/24 11:30 AEST (10/24 01:30 UTC)
風向・風速西 8m/s
視程10km以上
天気現象
なし
気温32℃
湿度28%
気圧1012hPa
METARYBBN 240130Z 26016KT CAVOK 32/11 Q1012
過去の天気等 Google飛行場航空写真 Wunderground天気予報

過去48時間のMETAR

飛行場予報(TAF)
発表時間: 10/24 11:15 AEST (10/24 01:15 UTC)
予報対象時間: 24日11時 AEST ~ 25日16時 AEST
風向・風速西 9m/s
視程10km以上
なし
24日14時 AEST から
風向・風速西南西 7m/s
視程10km以上
なし
24日20時 AEST から
風向・風速南南東 5m/s
視程10km以上
全天の4割程度の雲 雲底高度 370m
25日9時 AEST から
風向・風速東 5m/s
視程10km以上
全天の4割程度の雲 雲底高度 760m
25日11時 AEST から
風向・風速北東 7m/s
視程10km以上
天気現象弱いしゅう雨
全天の4割程度の雲 雲底高度 910m
24日22時 AEST ~ 25日8時 AEST に一時的に
視程10km以上
全天の8割程度の雲 雲底高度 300m
25日14時 AEST ~ 25日16時 AEST に 確率 30% で一時的に
風向・風速不定 10m/s 瞬間風速 23m/s
視程1000m
天気現象雷雨
全天の8割程度の雲 雲底高度 300m
全天の4割程度の積乱雲 雲底高度 910m
TAF AMD YBBN 240115Z 2401/2506 27017KT CAVOK
FM240400 25014KT CAVOK
FM241030 15010KT 9999 SCT012
FM242300 08010KT 9999 SCT025
FM250100 04013KT 9999 -SHRA SCT030
TEMPO 2412/2422 9999 BKN010
PROB30 TEMPO 2504/2506 VRB20G45KT 1000 TSRA BKN010 SCT030CB